createdAt,value
2022-08-22T00:01:38.461Z,81.82
2022-08-22T00:02:55.384Z,82.75
2022-08-22T00:04:14.422Z,81.94
2022-08-22T00:06:44.668Z,82.14
2022-08-22T00:10:11.846Z,81.71
2022-08-22T00:13:19.990Z,81.90
2022-08-22T00:16:01.160Z,82.68
2022-08-22T00:18:35.803Z,82.39
2022-08-22T00:21:14.231Z,82.80
2022-08-22T00:23:52.782Z,82.91
2022-08-22T00:26:45.470Z,83.67
2022-08-22T00:29:19.553Z,83.39
2022-08-22T00:31:58.775Z,83.12
2022-08-22T00:34:43.665Z,83.25
2022-08-22T00:37:27.903Z,83.71
2022-08-22T00:40:09.644Z,83.64
2022-08-22T00:43:04.569Z,83.28
2022-08-22T00:45:59.023Z,83.13
2022-08-22T00:48:48.105Z,83.25
2022-08-22T00:51:39.921Z,83.44
2022-08-22T00:54:16.780Z,83.13
2022-08-22T00:57:26.209Z,83.28
2022-08-22T01:00:14.054Z,83.25
2022-08-22T01:03:18.495Z,83.45
2022-08-22T01:06:12.783Z,82.92
2022-08-22T01:08:55.169Z,82.88
2022-08-22T01:11:28.117Z,82.42
2022-08-22T01:14:39.518Z,83.06
2022-08-22T01:17:41.533Z,83.54
2022-08-22T01:20:39.530Z,82.32
2022-08-22T01:23:40.733Z,83.21
2022-08-22T01:26:29.582Z,83.43
2022-08-22T01:29:10.493Z,83.13
2022-08-22T01:32:18.951Z,83.20
2022-08-22T01:34:59.650Z,83.00
2022-08-22T01:37:59.143Z,83.12
2022-08-22T01:40:53.926Z,82.66
2022-08-22T01:43:58.640Z,82.73
2022-08-22T01:46:35.006Z,82.86
2022-08-22T01:49:18.173Z,83.06
2022-08-22T01:52:17.798Z,83.99
2022-08-22T01:54:56.674Z,83.90
2022-08-22T01:57:27.869Z,83.64
2022-08-22T02:03:00.717Z,82.62
2022-08-22T02:05:59.085Z,81.99
2022-08-22T02:09:12.248Z,82.34
2022-08-22T02:12:21.989Z,81.85
2022-08-22T02:15:15.274Z,81.70
2022-08-22T02:18:05.214Z,82.23
2022-08-22T02:21:43.370Z,81.72
2022-08-22T02:24:33.335Z,82.21
2022-08-22T02:27:51.337Z,82.61
2022-08-22T02:30:50.761Z,82.42
2022-08-22T02:33:56.862Z,82.58
2022-08-22T02:36:50.582Z,81.96
2022-08-22T02:39:57.317Z,81.25
2022-08-22T02:43:09.030Z,81.76
2022-08-22T02:46:14.111Z,81.52
2022-08-22T02:49:24.074Z,81.63
2022-08-22T02:52:34.041Z,82.18
2022-08-22T02:55:34.812Z,81.79
2022-08-22T02:58:37.051Z,81.91
2022-08-22T03:01:36.843Z,81.17
2022-08-22T03:04:27.112Z,81.54
2022-08-22T03:07:27.154Z,80.66
2022-08-22T03:10:23.736Z,80.97
2022-08-22T03:13:40.117Z,80.35
2022-08-22T03:16:27.364Z,79.90
2022-08-22T03:19:39.272Z,79.92
2022-08-22T03:23:00.245Z,81.04
2022-08-22T03:26:11.677Z,82.76
2022-08-22T03:29:09.290Z,82.64
2022-08-22T03:32:19.572Z,83.32
2022-08-22T03:35:22.206Z,82.85
2022-08-22T03:38:26.494Z,82.39
2022-08-22T03:41:42.274Z,82.94
2022-08-22T03:44:35.837Z,83.08
2022-08-22T03:47:49.788Z,83.25
2022-08-22T03:51:01.631Z,83.15
2022-08-22T03:53:54.692Z,82.69
2022-08-22T03:57:00.469Z,82.81
2022-08-22T03:59:59.943Z,82.73
2022-08-22T04:03:06.625Z,82.70
2022-08-22T04:06:17.859Z,82.41
2022-08-22T04:09:32.320Z,81.39
2022-08-22T04:12:50.211Z,82.07
2022-08-22T04:16:01.167Z,81.72
2022-08-22T04:19:12.920Z,81.51
2022-08-22T04:22:20.539Z,82.20
2022-08-22T04:26:12.195Z,82.24
2022-08-22T04:29:24.965Z,82.13
2022-08-22T04:32:26.726Z,82.50
2022-08-22T04:35:28.111Z,81.28
2022-08-22T04:38:30.644Z,80.93
2022-08-22T04:42:00.702Z,79.56
2022-08-22T04:45:10.000Z,80.54
2022-08-22T04:48:00.300Z,80.79
2022-08-22T04:51:13.259Z,78.91
2022-08-22T04:54:19.050Z,80.22
2022-08-22T04:57:28.371Z,78.83
2022-08-22T05:00:17.208Z,79.41
2022-08-22T05:03:12.188Z,79.48
2022-08-22T05:06:03.044Z,80.27
2022-08-22T05:08:53.805Z,80.34
2022-08-22T05:11:42.749Z,80.12
2022-08-22T05:14:40.111Z,79.82
2022-08-22T05:17:32.072Z,79.53
2022-08-22T05:20:23.041Z,79.35
2022-08-22T05:23:18.817Z,79.55
2022-08-22T05:26:07.538Z,78.71
2022-08-22T05:29:01.218Z,79.31
2022-08-22T05:32:05.682Z,79.99
2022-08-22T05:34:56.137Z,80.41
2022-08-22T05:37:47.768Z,80.75
2022-08-22T05:40:37.950Z,79.64
2022-08-22T05:43:26.833Z,79.54
2022-08-22T05:46:33.176Z,77.76
2022-08-22T05:49:23.343Z,78.54
2022-08-22T05:52:13.422Z,78.73
2022-08-22T05:55:33.061Z,78.81
2022-08-22T05:58:39.027Z,78.23
2022-08-22T06:01:26.339Z,78.30
2022-08-22T06:04:26.946Z,77.93
2022-08-22T06:07:32.623Z,78.05
2022-08-22T06:10:43.336Z,76.77
2022-08-22T06:13:41.559Z,77.44
2022-08-22T06:16:48.577Z,77.86
2022-08-22T06:19:40.256Z,77.92
2022-08-22T06:22:31.772Z,76.88
2022-08-22T06:25:28.630Z,76.11
2022-08-22T06:28:25.816Z,76.28
2022-08-22T06:31:19.791Z,77.08
2022-08-22T06:34:14.934Z,77.36
2022-08-22T06:37:09.894Z,77.20
2022-08-22T06:39:58.870Z,76.58
2022-08-22T06:42:50.935Z,76.16
2022-08-22T06:45:39.827Z,76.07
2022-08-22T06:48:27.393Z,76.36
2022-08-22T06:51:17.858Z,76.12
2022-08-22T06:54:12.258Z,74.66
2022-08-22T06:57:00.269Z,75.82
2022-08-22T06:59:49.634Z,74.71
2022-08-22T07:02:44.194Z,74.55
2022-08-22T07:05:37.075Z,74.01
2022-08-22T07:08:26.654Z,74.18
2022-08-22T07:11:27.341Z,73.52
2022-08-22T07:14:25.466Z,73.92
2022-08-22T07:17:25.632Z,73.63
2022-08-22T07:20:45.277Z,72.32
2022-08-22T07:23:40.710Z,73.54
2022-08-22T07:26:48.548Z,73.25
2022-08-22T07:29:58.079Z,73.87
2022-08-22T07:33:26.023Z,72.55
2022-08-22T07:36:46.703Z,72.54
2022-08-22T07:39:51.503Z,74.47
2022-08-22T07:43:05.233Z,73.74
2022-08-22T07:46:18.377Z,72.00
2022-08-22T07:49:38.402Z,71.43
2022-08-22T07:52:30.612Z,72.67
2022-08-22T07:55:26.774Z,72.76
2022-08-22T07:58:16.355Z,72.86
2022-08-22T08:01:03.698Z,72.96
2022-08-22T08:04:07.874Z,70.30
2022-08-22T08:06:58.141Z,71.23
2022-08-22T08:09:55.624Z,69.80
2022-08-22T08:12:57.929Z,70.17
2022-08-22T08:15:51.352Z,70.85
2022-08-22T08:18:40.308Z,70.32
2022-08-22T08:21:43.018Z,68.60
2022-08-22T08:24:40.212Z,70.05
2022-08-22T08:27:52.617Z,68.04
2022-08-22T08:30:45.716Z,69.09
2022-08-22T08:33:33.925Z,68.80
2022-08-22T08:36:50.910Z,65.75
2022-08-22T08:39:53.639Z,67.31
2022-08-22T08:43:23.079Z,66.06
2022-08-22T08:46:39.526Z,67.25
2022-08-22T08:49:39.609Z,67.18
2022-08-22T08:52:35.950Z,68.46
2022-08-22T08:55:44.430Z,67.20
2022-08-22T08:58:57.165Z,66.59
2022-08-22T09:01:56.813Z,66.01
2022-08-22T09:05:09.224Z,63.92
2022-08-22T09:08:18.504Z,65.19
2022-08-22T09:11:44.668Z,61.48
2022-08-22T09:14:49.940Z,64.17
2022-08-22T09:18:08.884Z,60.53
2022-08-22T09:21:11.272Z,62.88
2022-08-22T09:24:18.049Z,63.25
2022-08-22T09:27:19.517Z,62.29
2022-08-22T09:30:15.714Z,63.43
2022-08-22T09:33:07.776Z,63.67
2022-08-22T09:36:06.471Z,62.52
2022-08-22T09:39:17.923Z,59.41
2022-08-22T09:42:35.378Z,59.18
2022-08-22T09:45:38.455Z,56.55
2022-08-22T09:48:38.218Z,59.59
2022-08-22T09:52:05.157Z,57.09
2022-08-22T09:55:27.872Z,59.70
2022-08-22T09:58:40.681Z,58.78
2022-08-22T10:02:15.505Z,58.42
2022-08-22T10:05:43.953Z,56.30
2022-08-22T10:08:47.277Z,59.72
2022-08-22T10:11:50.159Z,59.55
2022-08-22T10:14:52.062Z,57.58
2022-08-22T10:18:04.286Z,58.72
2022-08-22T10:21:07.853Z,57.84
2022-08-22T10:24:07.024Z,59.74
2022-08-22T10:26:59.884Z,60.48
2022-08-22T10:30:06.640Z,59.15
2022-08-22T10:33:13.595Z,59.58
2022-08-22T10:36:04.804Z,59.93
2022-08-22T10:39:00.214Z,58.54
2022-08-22T10:42:19.495Z,57.42
2022-08-22T10:45:32.120Z,60.07
2022-08-22T10:48:35.057Z,58.96
2022-08-22T10:51:39.777Z,57.76
2022-08-22T10:54:45.650Z,58.08
2022-08-22T10:57:52.134Z,59.23
2022-08-22T11:00:58.417Z,59.23
2022-08-22T11:04:06.957Z,59.41
2022-08-22T11:07:24.089Z,59.35
2022-08-22T11:10:49.184Z,57.74
2022-08-22T11:14:01.005Z,59.48
2022-08-22T11:17:27.991Z,59.51
2022-08-22T11:20:26.596Z,59.81
2022-08-22T11:23:31.947Z,58.68
2022-08-22T11:26:30.071Z,60.43
2022-08-22T11:29:44.257Z,58.99
2022-08-22T11:33:01.004Z,59.77
2022-08-22T11:36:04.583Z,58.03
2022-08-22T11:39:25.890Z,58.16
2022-08-22T11:42:33.485Z,57.86
2022-08-22T11:45:26.998Z,57.80
2022-08-22T11:48:28.759Z,58.48
2022-08-22T11:51:57.568Z,58.77
2022-08-22T11:55:07.085Z,56.86
2022-08-22T11:58:17.491Z,57.84
2022-08-22T12:01:16.992Z,59.63
2022-08-22T12:04:32.005Z,59.55
2022-08-22T12:07:29.095Z,58.20
2022-08-22T12:10:30.585Z,55.82
2022-08-22T12:13:40.864Z,56.40
2022-08-22T12:16:39.954Z,57.21
2022-08-22T12:20:14.653Z,55.69
2022-08-22T12:23:22.187Z,55.63
2022-08-22T12:26:52.758Z,56.09
2022-08-22T12:30:13.713Z,55.57
2022-08-22T12:33:29.057Z,54.80
2022-08-22T12:36:54.103Z,57.11
2022-08-22T12:40:19.460Z,54.71
2022-08-22T12:43:42.363Z,55.70
2022-08-22T12:46:51.483Z,56.78
2022-08-22T12:49:38.735Z,57.64
2022-08-22T12:52:50.142Z,54.60
2022-08-22T12:56:05.309Z,55.55
2022-08-22T12:59:30.781Z,54.83
2022-08-22T13:02:35.023Z,56.27
2022-08-22T13:05:26.254Z,56.37
2022-08-22T13:08:22.969Z,55.87
2022-08-22T13:11:23.261Z,56.21
2022-08-22T13:14:19.036Z,56.22
2022-08-22T13:17:25.008Z,55.25
2022-08-22T13:20:23.692Z,54.12
2022-08-22T13:23:20.716Z,55.59
2022-08-22T13:26:34.019Z,54.55
2022-08-22T13:29:42.907Z,55.49
2022-08-22T13:32:46.084Z,51.88
2022-08-22T13:35:44.707Z,54.84
2022-08-22T13:38:46.318Z,54.20
2022-08-22T13:41:44.247Z,55.39
2022-08-22T13:44:40.209Z,54.24
2022-08-22T13:47:31.831Z,55.61
2022-08-22T13:50:23.250Z,54.78
2022-08-22T13:53:26.247Z,53.60
2022-08-22T13:56:20.847Z,54.45
2022-08-22T13:59:29.255Z,53.36
2022-08-22T14:02:48.224Z,52.90
2022-08-22T14:05:46.432Z,51.00
2022-08-22T14:08:37.303Z,52.70
2022-08-22T14:11:30.212Z,52.88
2022-08-22T14:14:28.223Z,50.23
2022-08-22T14:17:24.268Z,51.91
2022-08-22T14:20:32.555Z,51.79
2022-08-22T14:23:29.530Z,51.09
2022-08-22T14:26:32.727Z,49.94
2022-08-22T14:29:28.224Z,51.28
2022-08-22T14:32:23.830Z,52.80
2022-08-22T14:35:35.404Z,51.08
2022-08-22T14:38:35.449Z,51.17
2022-08-22T14:41:25.522Z,52.39
2022-08-22T14:44:21.167Z,50.55
2022-08-22T14:47:54.176Z,49.80
2022-08-22T14:50:43.632Z,51.71
2022-08-22T14:53:33.594Z,52.46
2022-08-22T14:56:22.642Z,51.84
2022-08-22T14:59:27.041Z,50.53
2022-08-22T15:02:32.087Z,49.57
2022-08-22T15:05:21.640Z,48.85
2022-08-22T15:08:10.437Z,52.12
2022-08-22T15:11:14.871Z,48.64
2022-08-22T15:14:12.596Z,50.48
2022-08-22T15:17:05.428Z,51.70
2022-08-22T15:19:52.880Z,51.67
2022-08-22T15:22:46.262Z,51.75
2022-08-22T15:25:40.984Z,51.04
2022-08-22T15:28:33.727Z,51.87
2022-08-22T15:31:40.714Z,52.07
2022-08-22T15:34:39.884Z,50.61
2022-08-22T15:37:32.780Z,51.99
2022-08-22T15:40:40.702Z,51.18
2022-08-22T15:43:35.966Z,51.43
2022-08-22T15:46:26.159Z,52.51
2022-08-22T15:49:27.894Z,50.81
2022-08-22T15:52:31.232Z,51.52
2022-08-22T15:55:24.612Z,52.17
2022-08-22T15:58:24.852Z,51.29
2022-08-22T16:01:22.376Z,51.40
2022-08-22T16:04:14.773Z,52.24
2022-08-22T16:07:05.371Z,53.14
2022-08-22T16:09:59.335Z,52.16
2022-08-22T16:13:07.575Z,53.05
2022-08-22T16:16:00.432Z,53.11
2022-08-22T16:18:47.628Z,53.33
2022-08-22T16:21:55.018Z,52.47
2022-08-22T16:25:00.637Z,52.63
2022-08-22T16:27:57.157Z,53.32
2022-08-22T16:30:44.764Z,53.74
2022-08-22T16:33:37.653Z,54.04
2022-08-22T16:36:50.439Z,53.57
2022-08-22T16:40:14.419Z,53.37
2022-08-22T16:43:18.313Z,54.11
2022-08-22T16:46:43.643Z,53.59
2022-08-22T16:49:35.558Z,54.32
2022-08-22T16:52:25.944Z,54.43
2022-08-22T16:55:31.157Z,54.58
2022-08-22T16:59:03.289Z,54.72
2022-08-22T17:02:31.741Z,55.37
2022-08-22T17:05:29.372Z,55.38
2022-08-22T17:08:35.975Z,55.20
2022-08-22T17:11:35.315Z,55.38
2022-08-22T17:14:28.273Z,55.40
2022-08-22T17:17:40.298Z,55.35
2022-08-22T17:20:33.481Z,55.43
2022-08-22T17:23:38.595Z,55.58
2022-08-22T17:26:55.800Z,56.23
2022-08-22T17:30:07.407Z,56.20
2022-08-22T17:32:57.211Z,56.09
2022-08-22T17:35:57.249Z,56.38
2022-08-22T17:39:34.862Z,56.79
2022-08-22T17:42:25.114Z,56.80
2022-08-22T17:45:37.282Z,56.94
2022-08-22T17:48:48.246Z,57.12
2022-08-22T17:51:41.580Z,57.28
2022-08-22T17:54:58.780Z,58.06
2022-08-22T17:58:03.889Z,57.87
2022-08-22T18:00:56.565Z,57.69
2022-08-22T18:03:58.235Z,58.77
2022-08-22T18:06:59.501Z,58.91
2022-08-22T18:09:52.158Z,58.69
2022-08-22T18:13:06.867Z,58.69
2022-08-22T18:16:00.369Z,59.17
2022-08-22T18:19:27.570Z,59.87
2022-08-22T18:22:35.886Z,60.75
2022-08-22T18:25:23.298Z,59.18
2022-08-22T18:28:27.552Z,60.75
2022-08-22T18:31:21.432Z,61.01
2022-08-22T18:34:46.916Z,61.24
2022-08-22T18:37:35.402Z,60.22
2022-08-22T18:40:29.280Z,61.01
2022-08-22T18:43:50.647Z,61.06
2022-08-22T18:46:37.789Z,60.69
2022-08-22T18:49:24.980Z,60.79
2022-08-22T18:52:41.410Z,62.77
2022-08-22T18:55:56.601Z,62.56
2022-08-22T18:59:05.102Z,62.92
2022-08-22T19:02:27.398Z,62.74
2022-08-22T19:05:59.304Z,63.34
2022-08-22T19:09:05.394Z,61.90
2022-08-22T19:12:31.485Z,62.91
2022-08-22T19:16:12.315Z,63.96
2022-08-22T19:19:17.173Z,62.86
2022-08-22T19:22:19.715Z,63.37
2022-08-22T19:25:26.846Z,63.19
2022-08-22T19:28:23.219Z,63.18
2022-08-22T19:31:42.723Z,63.49
2022-08-22T19:34:29.965Z,62.60
2022-08-22T19:37:30.465Z,62.62
2022-08-22T19:40:45.831Z,63.43
2022-08-22T19:43:40.649Z,62.44
2022-08-22T19:46:36.889Z,62.83
2022-08-22T19:49:31.379Z,62.82
2022-08-22T19:52:24.128Z,63.07
2022-08-22T19:55:15.158Z,62.34
2022-08-22T19:58:05.103Z,62.30
2022-08-22T20:00:58.059Z,62.82
2022-08-22T20:03:58.196Z,63.05
2022-08-22T20:07:00.327Z,63.43
2022-08-22T20:09:53.359Z,63.66
2022-08-22T20:12:46.562Z,63.08
2022-08-22T20:15:55.203Z,62.94
2022-08-22T20:19:16.005Z,64.06
2022-08-22T20:22:05.887Z,62.82
2022-08-22T20:25:03.183Z,63.18
2022-08-22T20:28:03.056Z,63.15
2022-08-22T20:30:58.006Z,63.33
2022-08-22T20:33:46.847Z,63.17
2022-08-22T20:36:35.769Z,63.41
2022-08-22T20:39:27.060Z,63.07
2022-08-22T20:42:17.648Z,63.24
2022-08-22T20:45:12.256Z,63.95
2022-08-22T20:47:59.918Z,63.66
2022-08-22T20:50:48.150Z,63.49
2022-08-22T20:53:36.706Z,63.92
2022-08-22T20:56:53.519Z,65.35
2022-08-22T20:59:49.578Z,63.93
2022-08-22T21:02:39.572Z,65.50
2022-08-22T21:05:41.507Z,65.35
2022-08-22T21:08:28.721Z,63.91
2022-08-22T21:11:41.041Z,65.14
2022-08-22T21:14:33.957Z,64.48
2022-08-22T21:17:33.674Z,65.22
2022-08-22T21:20:23.011Z,64.50
2022-08-22T21:23:15.154Z,64.75
2022-08-22T21:26:07.206Z,64.31
2022-08-22T21:29:03.470Z,64.74
2022-08-22T21:31:54.304Z,64.99
2022-08-22T21:34:49.853Z,64.80
2022-08-22T21:37:46.002Z,65.72
2022-08-22T21:40:37.285Z,65.56
2022-08-22T21:43:32.837Z,66.00
2022-08-22T21:46:29.204Z,66.66
2022-08-22T21:49:26.062Z,66.13
2022-08-22T21:52:26.937Z,66.35
2022-08-22T21:55:39.080Z,67.19
2022-08-22T21:58:36.918Z,66.50
2022-08-22T22:01:30.763Z,67.70
2022-08-22T22:04:18.957Z,66.69
2022-08-22T22:07:06.228Z,66.88
2022-08-22T22:09:54.840Z,67.27
2022-08-22T22:12:44.862Z,67.60
2022-08-22T22:15:37.071Z,68.67
2022-08-22T22:18:27.615Z,67.64
2022-08-22T22:21:14.816Z,67.57
2022-08-22T22:24:02.163Z,67.94
2022-08-22T22:26:49.376Z,68.40
2022-08-22T22:29:36.904Z,68.13
2022-08-22T22:32:24.130Z,68.29
2022-08-22T22:35:11.356Z,68.13
2022-08-22T22:38:01.182Z,68.38
2022-08-22T22:40:48.622Z,68.29
2022-08-22T22:43:36.108Z,68.61
2022-08-22T22:46:24.203Z,68.83
2022-08-22T22:49:11.442Z,68.70
2022-08-22T22:51:59.810Z,68.62
2022-08-22T22:54:47.362Z,69.43
2022-08-22T22:57:42.519Z,69.56
2022-08-22T23:00:32.683Z,72.37
2022-08-22T23:03:20.479Z,73.86
2022-08-22T23:06:17.052Z,72.96
2022-08-22T23:09:04.364Z,72.35
2022-08-22T23:11:51.571Z,75.86
2022-08-22T23:14:38.857Z,76.08
2022-08-22T23:17:26.258Z,77.50
2022-08-22T23:20:13.552Z,78.37
2022-08-22T23:23:00.914Z,79.05
2022-08-22T23:25:48.095Z,79.46
2022-08-22T23:28:35.441Z,79.41
2022-08-22T23:31:56.342Z,83.26
2022-08-22T23:34:46.302Z,79.97
2022-08-22T23:37:33.670Z,80.17
2022-08-22T23:40:21.036Z,80.67
2022-08-22T23:43:08.368Z,79.21
2022-08-22T23:45:55.678Z,80.76
2022-08-22T23:48:43.734Z,80.32
2022-08-22T23:51:31.404Z,80.56
2022-08-22T23:54:18.930Z,80.11
2022-08-22T23:57:12.216Z,80.17
2022-08-22T23:59:59.957Z,80.88
